Time;durP1;ratioP1;P1;durP2;ratioP2;P2;SDS_P1;SDS_P2;PMS_P1;PMS_P2;Temp;Humidity;BMP_temperature;BMP_pressure;BME280_temperature;BME280_humidity;BME280_pressure;Samples;Min_cycle;Max_cycle;Signal;HPM_P1;HPM_P2
2021/11/01 00:04:19;;;;;;;2.17;1.20;;;17.40;74.30;;;;;;10376372;28;20026;-56
2021/11/01 00:09:20;;;;;;;1.52;0.80;;;17.40;74.30;;;;;;10376311;28;20474;-55
2021/11/01 00:14:22;;;;;;;1.88;1.02;;;17.40;74.20;;;;;;10377155;28;20029;-56
2021/11/01 00:19:24;;;;;;;1.23;0.50;;;17.40;74.10;;;;;;10375632;28;20117;-56
2021/11/01 00:24:24;;;;;;;2.13;1.10;;;17.40;74.20;;;;;;10372583;28;20026;-56
2021/11/01 00:29:25;;;;;;;2.50;0.93;;;17.40;74.10;;;;;;10346411;28;20483;-56
2021/11/01 00:34:26;;;;;;;1.45;0.60;;;17.50;73.90;;;;;;10346469;28;20084;-56
2021/11/01 00:39:26;;;;;;;2.78;0.88;;;17.50;73.80;;;;;;10376227;28;20466;-55
2021/11/01 00:44:27;;;;;;;2.17;0.85;;;17.50;81.90;;;;;;10374465;28;20179;-55
2021/11/01 00:49:28;;;;;;;3.55;1.00;;;17.40;73.80;;;;;;10333905;28;20514;-56
2021/11/01 00:54:29;;;;;;;2.10;1.05;;;17.40;73.80;;;;;;10335012;28;20034;-56
2021/11/01 00:59:30;;;;;;;1.67;0.90;;;17.40;73.90;;;;;;10335037;28;20372;-56
2021/11/01 01:04:31;;;;;;;1.98;0.90;;;17.40;74.00;;;;;;10366424;28;20026;-56
2021/11/01 01:09:31;;;;;;;2.70;0.88;;;17.40;74.00;;;;;;10373790;28;20489;-56
2021/11/01 01:14:39;;;;;;;1.75;0.77;;;17.50;73.70;;;;;;10374948;28;20065;-55
2021/11/01 01:20:05;;;;;;;0.82;0.52;;;17.50;73.60;;;;;;10374637;28;20435;-55
2021/11/01 01:25:37;;;;;;;1.77;0.70;;;17.50;73.60;;;;;;10364791;28;20041;-56
2021/11/01 01:30:38;;;;;;;1.65;0.80;;;17.50;73.70;;;;;;10350430;28;20040;-57
2021/11/01 01:35:41;;;;;;;1.52;0.70;;;17.50;73.50;;;;;;10360329;28;20022;-56
2021/11/01 01:40:42;;;;;;;1.65;0.82;;;17.50;73.50;;;;;;10373817;28;20061;-56
2021/11/01 01:45:42;;;;;;;1.77;0.95;;;17.50;73.50;;;;;;10373818;28;20037;-55
2021/11/01 01:50:43;;;;;;;2.42;1.60;;;17.50;73.50;;;;;;10372343;28;20040;-56
2021/11/01 01:55:44;;;;;;;2.70;0.77;;;17.40;73.50;;;;;;10373558;28;20038;-55
2021/11/01 02:01:08;;;;;;;1.70;0.63;;;17.40;73.60;;;;;;10373031;28;20058;-56
2021/11/01 02:06:13;;;;;;;3.08;0.80;;;17.50;73.40;;;;;;10373335;28;20049;-56
2021/11/01 02:11:22;;;;;;;2.05;0.70;;;17.50;73.10;;;;;;10371738;28;20037;-56
2021/11/01 02:16:23;;;;;;;4.43;0.90;;;17.60;73.20;;;;;;10372923;28;20033;-56
2021/11/01 02:21:58;;;;;;;3.63;1.08;;;17.50;73.10;;;;;;10371562;28;20386;-56
2021/11/01 02:26:59;;;;;;;1.90;0.70;;;17.50;73.50;;;;;;10347884;28;20092;-56
2021/11/01 02:32:01;;;;;;;2.17;0.80;;;17.50;73.40;;;;;;10339091;28;20052;-56
2021/11/01 02:37:02;;;;;;;3.28;1.00;;;17.40;73.30;;;;;;10331641;28;20026;-55
2021/11/01 02:42:03;;;;;;;3.85;0.98;;;17.40;73.30;;;;;;10331379;28;20047;-56
2021/11/01 02:47:04;;;;;;;2.42;0.80;;;17.40;73.30;;;;;;10314205;28;20448;-56
2021/11/01 02:52:05;;;;;;;2.03;1.42;;;17.50;72.90;;;;;;10331344;28;20634;-56
2021/11/01 02:57:06;;;;;;;2.85;1.05;;;17.60;72.70;;;;;;10313594;28;20026;-56
2021/11/01 03:02:08;;;;;;;2.15;0.70;;;17.60;72.70;;;;;;10357676;28;20437;-54
2021/11/01 03:07:09;;;;;;;2.10;0.90;;;17.60;72.70;;;;;;10371863;28;20018;-55
2021/11/01 03:12:13;;;;;;;1.35;0.65;;;17.50;72.70;;;;;;10369248;28;20482;-55
2021/11/01 03:17:20;;;;;;;1.20;0.60;;;17.50;72.90;;;;;;10374807;28;20030;-55
2021/11/01 03:22:22;;;;;;;1.23;0.75;;;17.50;73.00;;;;;;10375625;28;20081;-56
2021/11/01 03:27:24;;;;;;;1.98;0.75;;;17.40;73.00;;;;;;10351768;28;20029;-55
2021/11/01 03:32:25;;;;;;;2.85;0.60;;;17.40;73.10;;;;;;10323507;28;20116;-55
2021/11/01 03:37:28;;;;;;;2.95;1.00;;;17.50;73.00;;;;;;10336419;28;20097;-54
2021/11/01 03:42:29;;;;;;;2.13;0.85;;;17.60;72.60;;;;;;10347934;28;20121;-56
2021/11/01 03:47:36;;;;;;;1.60;0.70;;;17.60;72.50;;;;;;10337926;28;20113;-56
2021/11/01 03:52:38;;;;;;;1.60;0.52;;;17.60;72.60;;;;;;10363976;28;20504;-55
2021/11/01 03:57:40;;;;;;;1.45;0.70;;;17.60;72.60;;;;;;10376675;28;20026;-57
2021/11/01 04:02:44;;;;;;;1.67;0.50;;;17.50;72.70;;;;;;10376463;28;20501;-56
2021/11/01 04:07:45;;;;;;;2.00;0.80;;;17.50;72.80;;;;;;10360027;28;20062;-56
2021/11/01 04:12:46;;;;;;;1.35;0.65;;;17.40;72.90;;;;;;10375935;28;20026;-55
2021/11/01 04:18:06;;;;;;;1.92;0.47;;;17.40;73.00;;;;;;10377333;28;20088;-54
2021/11/01 04:23:11;;;;;;;2.92;0.82;;;17.40;72.90;;;;;;10364588;28;20030;-55
2021/11/01 04:28:12;;;;;;;1.77;0.85;;;17.60;72.60;;;;;;10369749;28;20068;-54
2021/11/01 04:33:16;;;;;;;1.92;0.98;;;17.60;72.40;;;;;;10334914;28;20026;-56
2021/11/01 04:43:51;;;;;;;1.75;0.60;;;17.70;71.90;;;;;;10375772;28;20535;-55
2021/11/01 04:54:07;;;;;;;1.20;0.65;;;17.70;72.10;;;;;;10375721;28;20037;-55
2021/11/01 04:59:09;;;;;;;1.88;0.65;;;17.70;72.10;;;;;;10363030;28;20058;-54
2021/11/01 05:04:16;;;;;;;1.63;0.65;;;17.60;72.10;;;;;;10363554;28;20104;-55
2021/11/01 05:09:30;;;;;;;2.20;0.70;;;17.60;72.20;;;;;;10373344;28;20096;-56
2021/11/01 05:14:39;;;;;;;1.92;0.70;;;17.50;72.30;;;;;;10373153;28;20057;-56
2021/11/01 05:19:48;;;;;;;2.07;0.73;;;17.50;72.40;;;;;;10374660;28;20036;-55
2021/11/01 05:25:01;;;;;;;1.83;0.80;;;17.50;72.30;;;;;;10366549;28;20049;-56
2021/11/01 05:30:08;;;;;;;1.02;0.60;;;17.60;72.20;;;;;;10327703;28;20378;-55
2021/11/01 05:35:09;;;;;;;1.88;0.65;;;17.60;72.30;;;;;;10333399;28;20397;-55
2021/11/01 05:40:10;;;;;;;1.98;0.60;;;17.50;72.30;;;;;;10332867;28;20112;-54
2021/11/01 05:45:11;;;;;;;1.90;0.75;;;17.70;71.90;;;;;;10332822;28;20050;-55
2021/11/01 05:50:12;;;;;;;4.55;0.80;;;17.90;71.30;;;;;;10344534;28;20036;-55
2021/11/01 05:55:24;;;;;;;4.65;1.20;;;18.00;71.10;;;;;;10373430;28;20042;-56
2021/11/01 06:05:57;;;;;;;5.10;1.17;;;18.60;71.90;;;;;;10362033;28;20455;-56
2021/11/01 06:16:17;;;;;;;5.10;1.50;;;18.60;72.60;;;;;;10372904;28;20398;-49
2021/11/01 06:21:20;;;;;;;6.38;1.50;;;18.60;72.60;;;;;;10372470;28;20033;-54
2021/11/01 06:26:23;;;;;;;7.55;1.70;;;18.50;72.20;;;;;;10352048;28;20026;-52
2021/11/01 06:31:34;;;;;;;4.85;2.10;;;18.60;72.20;;;;;;10341202;28;20042;-53
2021/11/01 06:42:30;;;;;;;5.30;1.20;;;18.70;72.20;;;;;;10330629;28;20058;-56
2021/11/01 06:49:45;;;;;;;6.90;1.67;;;18.60;72.20;;;;;;10338073;28;20372;-55
2021/11/01 07:24:34;;;;;;;8.68;1.85;;;18.50;71.50;;;;;;10343762;28;20645;-57
2021/11/01 08:49:26;;;;;;;6.95;1.60;;;18.10;72.40;;;;;;10372108;28;20050;-57
2021/11/01 09:05:38;;;;;;;4.32;1.23;;;18.10;75.30;;;;;;10358290;28;20026;-56
2021/11/01 09:41:38;;;;;;;7.82;1.50;;;18.00;73.40;;;;;;10363509;28;20502;-57
2021/11/01 09:46:39;;;;;;;8.60;1.65;;;18.10;73.70;;;;;;10356504;28;20121;-56
2021/11/01 09:51:51;;;;;;;7.97;1.45;;;18.10;74.10;;;;;;10346102;28;20038;-53
2021/11/01 09:57:11;;;;;;;5.68;1.77;;;18.10;73.40;;;;;;10351136;28;20061;-56
2021/11/01 10:02:17;;;;;;;6.18;1.20;;;18.00;73.90;;;;;;10370644;28;20066;-54
2021/11/01 10:07:24;;;;;;;4.70;1.42;;;18.10;73.50;;;;;;10372852;28;20030;-57
2021/11/01 10:12:32;;;;;;;4.18;1.30;;;18.00;73.50;;;;;;10372680;28;20122;-56
2021/11/01 10:17:34;;;;;;;3.13;1.35;;;18.10;73.50;;;;;;10362546;28;20030;-56
2021/11/01 10:22:39;;;;;;;5.32;1.23;;;18.00;73.50;;;;;;10370825;28;20522;-56
2021/11/01 10:27:42;;;;;;;4.88;1.42;;;18.00;73.70;;;;;;10348639;28;20104;-55
2021/11/01 10:32:49;;;;;;;3.45;1.15;;;18.10;73.50;;;;;;10333522;28;20030;-56
2021/11/01 10:38:29;;;;;;;4.43;1.23;;;18.10;73.50;;;;;;10333986;28;20109;-54
2021/11/01 11:15:52;;;;;;;15.50;2.25;;;18.20;78.00;;;;;;10371370;28;20061;-57
2021/11/01 11:31:36;;;;;;;12.98;1.60;;;18.30;73.30;;;;;;10351625;28;20038;-56
2021/11/01 11:42:22;;;;;;;;;;;18.40;73.70;;;;;;10378287;28;20437;-55
2021/11/01 11:47:51;;;;;;;12.85;2.20;;;18.30;73.50;;;;;;10376748;28;19909;-54
2021/11/01 11:52:52;;;;;;;12.48;1.90;;;18.30;73.70;;;;;;10376617;28;20526;-53
2021/11/01 11:58:00;;;;;;;11.50;2.05;;;18.30;73.80;;;;;;10377364;28;20025;-55
2021/11/01 12:03:16;;;;;;;15.85;2.35;;;18.20;73.90;;;;;;10375797;28;20037;-56
2021/11/01 12:08:27;;;;;;;9.75;1.73;;;18.20;74.10;;;;;;10368709;28;20041;-56
2021/11/01 12:14:00;;;;;;;9.50;1.83;;;18.20;74.00;;;;;;10338628;28;20136;-56
2021/11/01 12:19:05;;;;;;;11.27;1.55;;;18.20;74.00;;;;;;10352406;28;20466;-56
2021/11/01 12:24:21;;;;;;;7.07;1.50;;;18.20;74.00;;;;;;10373833;28;20033;-52
2021/11/01 12:29:23;;;;;;;8.55;1.60;;;18.20;74.10;;;;;;10345654;28;20061;-55
2021/11/01 12:34:24;;;;;;;6.50;1.40;;;18.20;74.30;;;;;;10335588;28;20039;-54
2021/11/01 12:39:36;;;;;;;4.13;1.17;;;18.20;74.30;;;;;;10335399;28;20019;-55
2021/11/01 13:00:09;;;;;;;8.13;2.30;;;18.20;74.40;;;;;;10345649;28;20437;-52
2021/11/01 13:05:21;;;;;;;6.85;1.35;;;18.10;74.40;;;;;;10374030;28;20058;-53
2021/11/01 13:10:43;;;;;;;11.73;1.50;;;18.10;74.40;;;;;;10372000;28;20034;-55
2021/11/01 13:21:18;;;;;;;11.75;1.88;;;18.10;74.40;;;;;;10374497;28;20041;-57
2021/11/01 13:42:18;;;;;;;16.10;1.70;;;18.20;74.90;;;;;;10332681;28;20053;-54
2021/11/01 13:47:18;;;;;;;17.05;2.20;;;18.20;74.60;;;;;;10357370;28;20109;-56
2021/11/01 13:57:38;;;;;;;16.60;2.60;;;18.20;74.70;;;;;;10370542;28;20048;-55
2021/11/01 14:03:00;;;;;;;36.23;4.93;;;18.20;74.90;;;;;;10351868;28;20049;-57
2021/11/01 14:29:12;;;;;;;19.25;3.50;;;18.00;74.40;;;;;;10342929;28;20042;-56
2021/11/01 15:15:43;;;;;;;24.27;3.40;;;17.80;73.70;;;;;;10378807;28;20041;-57
2021/11/01 15:31:34;;;;;;;20.10;4.15;;;17.80;73.60;;;;;;10348668;28;20038;-56
2021/11/01 16:19:06;;;;;;;29.93;5.30;;;17.80;73.50;;;;;;10376365;28;20470;-57
2021/11/01 16:24:11;;;;;;;25.67;4.10;;;17.80;73.80;;;;;;10355704;28;20050;-57
2021/11/01 16:29:16;;;;;;;20.73;3.25;;;17.90;75.80;;;;;;10352233;28;20680;-59
2021/11/01 16:34:22;;;;;;;20.73;3.53;;;17.90;72.70;;;;;;10367049;28;20470;-58
2021/11/01 16:40:05;;;;;;;13.98;2.60;;;17.90;71.50;;;;;;10348026;28;20557;-59
2021/11/01 16:45:27;;;;;;;11.07;3.35;;;18.10;70.30;;;;;;10342449;28;20042;-58
2021/11/01 16:50:28;;;;;;;12.50;2.53;;;18.30;70.10;;;;;;10335898;28;20046;-56
2021/11/01 16:55:33;;;;;;;13.48;2.55;;;18.50;70.90;;;;;;10332647;28;20487;-56
2021/11/01 17:00:43;;;;;;;6.55;2.30;;;18.60;71.30;;;;;;10334244;28;20070;-56
2021/11/01 17:06:05;;;;;;;;;;;18.50;71.60;;;;;;10356594;28;20034;-56
2021/11/01 17:21:16;;;;;;;10.05;2.53;;;18.50;71.30;;;;;;10333054;28;19910;-55
2021/11/01 17:38:06;;;;;;;14.57;2.67;;;18.20;72.00;;;;;;10333342;28;20035;-55
2021/11/01 18:37:15;;;;;;;8.63;2.33;;;18.00;73.50;;;;;;10353544;28;20035;-56
2021/11/01 18:42:29;;;;;;;8.98;3.03;;;18.00;73.20;;;;;;10353436;28;20046;-56
2021/11/01 18:53:07;;;;;;;7.45;2.75;;;17.90;73.20;;;;;;10370977;28;20038;-55
2021/11/01 18:58:10;;;;;;;5.93;2.53;;;18.00;73.20;;;;;;10366783;28;20037;-55
2021/11/01 19:03:15;;;;;;;10.57;2.38;;;18.00;73.00;;;;;;10365363;28;20029;-56
2021/11/01 19:08:34;;;;;;;12.27;2.33;;;17.90;73.00;;;;;;10374048;28;20058;-56
2021/11/01 20:08:13;;;;;;;4.28;1.60;;;18.10;71.20;;;;;;10364886;28;20729;-56
2021/11/01 21:28:05;;;;;;;4.25;1.45;;;17.50;72.10;;;;;;10373240;28;20491;-56
2021/11/01 21:33:06;;;;;;;3.10;1.45;;;17.50;72.00;;;;;;10363756;28;20117;-54
2021/11/01 21:38:07;;;;;;;4.70;1.67;;;17.50;72.00;;;;;;10354064;28;20039;-56
2021/11/01 21:43:07;;;;;;;4.00;1.55;;;17.50;72.00;;;;;;10333916;28;20061;-56
2021/11/01 21:48:08;;;;;;;3.50;2.03;;;17.40;71.90;;;;;;10354325;28;20084;-55
2021/11/01 21:53:09;;;;;;;3.45;1.48;;;17.40;71.90;;;;;;10356066;28;20375;-56
2021/11/01 21:58:26;;;;;;;3.95;1.60;;;17.40;71.90;;;;;;10347767;28;20032;-55
2021/11/01 22:19:50;;;;;;;3.20;1.27;;;17.30;71.80;;;;;;10346194;28;20105;-55
2021/11/01 22:25:10;;;;;;;2.97;1.33;;;17.30;71.70;;;;;;10371001;28;20390;-56
2021/11/01 22:56:47;;;;;;;3.13;1.30;;;17.40;71.00;;;;;;10331964;28;20042;-55
2021/11/01 23:01:49;;;;;;;3.58;1.63;;;17.50;70.90;;;;;;10342613;28;20281;-55
2021/11/01 23:33:43;;;;;;;4.30;1.48;;;17.50;70.30;;;;;;10338357;28;20482;-54
2021/11/01 23:38:43;;;;;;;2.58;1.38;;;17.50;70.40;;;;;;10348038;28;20046;-55
2021/11/01 23:43:46;;;;;;;3.60;1.65;;;17.50;70.50;;;;;;10358868;28;20038;-55
2021/11/01 23:48:47;;;;;;;4.28;1.52;;;17.40;70.50;;;;;;10349262;28;20030;-55
2021/11/01 23:54:01;;;;;;;3.42;1.38;;;17.40;70.50;;;;;;10341013;28;20054;-55
2021/11/01 23:59:02;;;;;;;1.83;1.30;;;17.40;70.30;;;;;;10365043;28;20037;-53
